WetterOnline ( https://www.wetteronline.de )

Wetter aktuell Kühlungsborn

Aktuelles Wetter: Rostock-Warnemünde (10m)

6-stündlich | Neueste Meldungen
Ortszeit Temperatur Wetter
Di, 20.10. 20:00 9.7° C Sprühregen
Di, 20.10. 14:00 10.5° C bewölkt
Di, 20.10. 8:00 7.2° C bedeckt
Di, 20.10. 2:00 8.5° C bedeckt
Mo, 19.10. 20:00 9.6° C bedeckt
Mo, 19.10. 14:00 10.8° C leicht bewölkt
Mo, 19.10. 8:00 5.9° C wolkig
Mo, 19.10. 2:00 10.0° C wolkig
Ortszeit Temperatur Wetter
Mi, 21.10. 1:30 10.9° C leichter Regen
Mi, 21.10. 1:20 10.9° C leichter Regen
Mi, 21.10. 1:10 10.9° C leichter Regen
Mi, 21.10. 1:00 10.9° C leichter Regen
Mi, 21.10. 0:50 10.9° C leichter Regen
Mi, 21.10. 0:40 10.9° C leichter Regen
Mi, 21.10. 0:30 10.8° C Sprühregen
Mi, 21.10. 0:00 10.7° C leichter Regen
Ortszeit Relative Feuchte Sichtweite
Di, 20.10. 20:00 89% 13 km
Di, 20.10. 14:00 67% 30 km
Di, 20.10. 8:00 81% 23 km
Di, 20.10. 2:00 85% 29 km
Mo, 19.10. 20:00 80% 45 km
Mo, 19.10. 14:00 72% 40 km
Mo, 19.10. 8:00 93% 30 km
Mo, 19.10. 2:00 70% 35 km
Ortszeit Relative Feuchte Sichtweite
Mi, 21.10. 1:30 95% 10 km
Mi, 21.10. 1:20 95% -
Mi, 21.10. 1:10 94% -
Mi, 21.10. 1:00 93% 10 km
Mi, 21.10. 0:50 93% -
Mi, 21.10. 0:40 92% -
Mi, 21.10. 0:30 91% 14 km
Mi, 21.10. 0:00 90% 17 km
Ortszeit Niederschlagsmenge Niederschlagsart
Di, 20.10. 20:00 0.4 l/m2 in 12 Std. Regen
Di, 20.10. 14:00 0.0 l/m2 in 6 Std. -
Di, 20.10. 8:00 0.0 l/m2 in 12 Std. -
Di, 20.10. 2:00 0.0 l/m2 in 6 Std. -
Mo, 19.10. 20:00 0.1 l/m2 in 12 Std. Regen
Mo, 19.10. 14:00 0.0 l/m2 in 6 Std. -
Mo, 19.10. 8:00 0.0 l/m2 in 12 Std. -
Mo, 19.10. 2:00 0.0 l/m2 in 6 Std. -
Ortszeit Niederschlagsmenge Niederschlagsart
Mi, 21.10. 1:30 0.1 l/m2 in 1 Std. -
Mi, 21.10. 1:20 keine Meldung -
Mi, 21.10. 1:10 keine Meldung -
Mi, 21.10. 1:00 0.3 l/m2 in 1 Std. Regen
Mi, 21.10. 0:50 keine Meldung -
Mi, 21.10. 0:40 keine Meldung -
Mi, 21.10. 0:30 0.1 l/m2 in 1 Std. -
Mi, 21.10. 0:00 0.1 l/m2 in 1 Std. Regen
Ortszeit Stärke Spitze Richtung
km/h Bft. km/h Grad Sektor
Di, 20.10. 20:00 13 3 33 180° S
Di, 20.10. 14:00 17 3 39 160° S
Di, 20.10. 8:00 9 2 24 150° SO
Di, 20.10. 2:00 9 2 20 170° S
Mo, 19.10. 20:00 9 2 31 190° S
Mo, 19.10. 14:00 18 3 32 270° W
Mo, 19.10. 8:00 14 3 40 210° SW
Mo, 19.10. 2:00 32 5 50 290° W
Ortszeit Stärke Spitze Richtung
km/h Bft. km/h Grad Sektor
Mi, 21.10. 1:30 13 3 26 190° S
Mi, 21.10. 1:20 13 3 - 190° S
Mi, 21.10. 1:10 14 3 - 180° S
Mi, 21.10. 1:00 14 3 25 180° S
Mi, 21.10. 0:50 14 3 - 180° S
Mi, 21.10. 0:40 14 3 - 190° S
Mi, 21.10. 0:30 13 3 24 180° S
Mi, 21.10. 0:00 13 3 24 180° S
Ortszeit Untergrenze Bedeckung Gattung
total tief tief mittel hoch
Di, 20.10. 20:00 2100 m 7/8 7/8 - - -
Di, 20.10. 14:00 4500 m 7/8 6/8 - - -
Di, 20.10. 8:00 4200 m 8/8 8/8 - - -
Di, 20.10. 2:00 1500 m 8/8 8/8 - - -
Mo, 19.10. 20:00 1500 m 8/8 8/8 - - -
Mo, 19.10. 14:00 750 m 5/8 3/8 - - -
Mo, 19.10. 8:00 750 m 6/8 6/8 - - -
Mo, 19.10. 2:00 960 m 7/8 3/8 - - -
Ortszeit Bedeckungsgrad in Achtel und Wolkenuntergrenze
Mi, 21.10. 1:30 1(420m) 6(2400m)
Mi, 21.10. 1:20 1(420m) 2(1200m) 6(2400m)
Mi, 21.10. 1:10 3(1170m) 4(2700m)
Mi, 21.10. 1:00 2(780m) 7(1140m) 8(2400m)
Mi, 21.10. 0:50 2(780m) 7(1140m) 8(2400m)
Mi, 21.10. 0:40 3(810m) 7(1200m) 7(1800m)
Mi, 21.10. 0:30 7(870m) 8(1500m) 8(1500m)
Mi, 21.10. 0:00 5(780m) 7(930m) 8(1110m)
Ortszeit Luftdruck NN (hPa) Tendenz (hPa in 3 Std.)
Di, 20.10. 20:00 1009 - 0,7
Di, 20.10. 14:00 1012 - 2,6
Di, 20.10. 8:00 1017 - 1,4
Di, 20.10. 2:00 1020 - 0,6
Mo, 19.10. 20:00 1021 + 0,3
Mo, 19.10. 14:00 1021 + 0,4
Mo, 19.10. 8:00 1019 + 0,3
Mo, 19.10. 2:00 1018 + 1,2
Ortszeit Luftdruck NN (hPa) Tendenz (hPa in 3 Std.)
Mi, 21.10. 1:30 1008 - 0,5
Mi, 21.10. 1:20 1008 keine Meldung
Mi, 21.10. 1:10 1009 keine Meldung
Mi, 21.10. 1:00 1009 - 0,4
Mi, 21.10. 0:50 1009 keine Meldung
Mi, 21.10. 0:40 1009 keine Meldung
Mi, 21.10. 0:30 1009 + 0,1
Mi, 21.10. 0:00 1009 - 0,9
Ortszeit Schneehöhe (cm)
Di, 20.10. 20:00 0
Di, 20.10. 14:00 0
Di, 20.10. 8:00 0
Di, 20.10. 2:00 0
Mo, 19.10. 20:00 0
Mo, 19.10. 14:00 0
Mo, 19.10. 8:00 0
Mo, 19.10. 2:00 0
Ortszeit Schneehöhe (cm)
Mi, 21.10. 1:30 0
Mi, 21.10. 1:20 0
Mi, 21.10. 1:10 0
Mi, 21.10. 1:00 0
Mi, 21.10. 0:50 0
Mi, 21.10. 0:40 0
Mi, 21.10. 0:30 0
Mi, 21.10. 0:00 0
Link zu dieser Seite / Seite empfehlen

Das Wetter in ...